createdAt,value
2023-02-15T00:01:53.354Z,58.33
2023-02-15T00:04:23.433Z,55.90
2023-02-15T00:06:50.713Z,58.23
2023-02-15T00:09:17.693Z,56.03
2023-02-15T00:11:50.863Z,56.73
2023-02-15T00:14:23.484Z,53.77
2023-02-15T00:16:52.455Z,55.47
2023-02-15T00:19:21.387Z,55.90
2023-02-15T00:21:49.365Z,54.10
2023-02-15T00:24:19.023Z,54.10
2023-02-15T00:26:47.314Z,57.73
2023-02-15T00:29:15.853Z,56.67
2023-02-15T00:31:43.589Z,56.37
2023-02-15T00:34:18.381Z,56.23
2023-02-15T00:36:45.948Z,55.33
2023-02-15T00:39:13.445Z,55.73
2023-02-15T00:41:40.778Z,56.07
2023-02-15T00:44:08.964Z,59.07
2023-02-15T00:46:36.568Z,59.90
2023-02-15T00:49:04.635Z,58.93
2023-02-15T00:51:32.128Z,59.63
2023-02-15T00:53:59.284Z,53.30
2023-02-15T00:56:26.238Z,48.40
2023-02-15T00:58:53.204Z,52.57
2023-02-15T01:01:21.974Z,50.50
2023-02-15T01:03:48.999Z,54.00
2023-02-15T01:06:17.403Z,55.27
2023-02-15T01:08:45.680Z,53.17
2023-02-15T01:11:23.390Z,54.83
2023-02-15T01:13:56.115Z,57.23
2023-02-15T01:16:25.368Z,58.57
2023-02-15T01:18:52.356Z,56.77
2023-02-15T01:21:23.403Z,57.90
2023-02-15T01:23:50.841Z,60.37
2023-02-15T01:26:17.984Z,62.43
2023-02-15T01:28:45.726Z,58.80
2023-02-15T01:31:16.825Z,60.37
2023-02-15T01:33:44.072Z,59.33
2023-02-15T01:36:11.396Z,62.50
2023-02-15T01:38:38.428Z,62.10
2023-02-15T01:41:23.665Z,63.10
2023-02-15T01:43:55.198Z,61.37
2023-02-15T01:46:39.061Z,62.43
2023-02-15T01:49:16.677Z,63.40
2023-02-15T01:51:46.880Z,60.90
2023-02-15T01:54:19.134Z,59.43
2023-02-15T01:56:47.836Z,60.97
2023-02-15T01:59:19.624Z,64.13
2023-02-15T02:01:47.480Z,60.97
2023-02-15T02:04:39.206Z,60.47
2023-02-15T02:07:09.438Z,61.63
2023-02-15T02:09:37.938Z,57.57
2023-02-15T02:12:05.367Z,54.87
2023-02-15T02:14:32.612Z,53.60
2023-02-15T02:17:08.333Z,56.57
2023-02-15T02:19:40.957Z,56.80
2023-02-15T02:22:32.880Z,57.60
2023-02-15T02:25:28.589Z,54.63
2023-02-15T02:28:07.517Z,50.37
2023-02-15T02:30:46.378Z,49.47
2023-02-15T02:33:54.988Z,46.23
2023-02-15T02:36:37.881Z,47.00
2023-02-15T02:39:07.810Z,51.07
2023-02-15T02:42:07.225Z,51.27
2023-02-15T02:44:45.024Z,54.53
2023-02-15T02:47:38.036Z,53.60
2023-02-15T02:50:10.916Z,53.53
2023-02-15T02:52:48.121Z,55.57
2023-02-15T02:56:00.258Z,53.77
2023-02-15T02:58:38.306Z,50.47
2023-02-15T03:01:14.388Z,53.40
2023-02-15T03:03:57.072Z,49.67
2023-02-15T03:06:31.325Z,47.33
2023-02-15T03:09:42.925Z,51.53
2023-02-15T03:12:19.248Z,46.73
2023-02-15T03:14:50.484Z,46.07
2023-02-15T03:17:20.783Z,47.03
2023-02-15T03:19:51.187Z,44.80
2023-02-15T03:22:23.984Z,45.27
2023-02-15T03:25:31.578Z,43.53
2023-02-15T03:28:06.051Z,42.57
2023-02-15T03:30:35.209Z,43.97
2023-02-15T03:33:04.329Z,41.10
2023-02-15T03:35:58.342Z,43.70
2023-02-15T03:38:36.359Z,46.03
2023-02-15T03:41:12.076Z,47.27
2023-02-15T03:44:03.685Z,44.07
2023-02-15T03:46:35.895Z,40.93
2023-02-15T03:49:11.112Z,40.43
2023-02-15T03:51:41.965Z,39.93
2023-02-15T03:54:10.327Z,40.87
2023-02-15T03:56:40.026Z,43.60
2023-02-15T03:59:25.394Z,47.97
2023-02-15T04:02:15.857Z,44.80
2023-02-15T04:04:47.767Z,43.80
2023-02-15T04:07:14.711Z,46.27
2023-02-15T04:10:00.141Z,44.13
2023-02-15T04:12:27.051Z,43.40
2023-02-15T04:15:12.509Z,46.37
2023-02-15T04:17:39.670Z,44.83
2023-02-15T04:20:25.682Z,42.30
2023-02-15T04:23:11.135Z,37.03
2023-02-15T04:25:38.063Z,35.20
2023-02-15T04:28:05.064Z,33.27
2023-02-15T04:30:32.005Z,34.40
2023-02-15T04:32:59.740Z,34.80
2023-02-15T04:35:26.892Z,34.10
2023-02-15T04:37:53.867Z,36.23
2023-02-15T04:40:20.784Z,38.40
2023-02-15T04:42:50.835Z,37.57
2023-02-15T04:45:18.404Z,32.97
2023-02-15T04:47:46.223Z,33.37
2023-02-15T04:50:13.282Z,34.60
2023-02-15T04:52:40.225Z,35.23
2023-02-15T04:55:07.741Z,33.70
2023-02-15T04:57:34.748Z,32.90
2023-02-15T05:00:01.693Z,31.10
2023-02-15T05:02:28.702Z,33.83
2023-02-15T05:04:55.591Z,34.60
2023-02-15T05:07:22.823Z,35.30
2023-02-15T05:09:49.740Z,36.17
2023-02-15T05:12:16.804Z,37.80
2023-02-15T05:14:43.682Z,41.17
2023-02-15T05:17:10.614Z,40.80
2023-02-15T05:19:37.520Z,40.77
2023-02-15T05:22:04.897Z,40.43
2023-02-15T05:24:50.159Z,40.00
2023-02-15T05:27:35.544Z,41.80
2023-02-15T05:30:03.037Z,40.87
2023-02-15T05:32:30.185Z,42.03
2023-02-15T05:34:57.108Z,41.63
2023-02-15T05:37:24.053Z,43.07
2023-02-15T05:39:50.973Z,40.63
2023-02-15T05:42:17.905Z,41.80
2023-02-15T05:44:44.868Z,43.83
2023-02-15T05:47:11.753Z,43.07
2023-02-15T05:49:39.639Z,42.87
2023-02-15T05:52:06.583Z,42.87
2023-02-15T05:54:33.489Z,43.83
2023-02-15T05:57:00.344Z,42.10
2023-02-15T05:59:27.274Z,42.07
2023-02-15T06:01:54.439Z,42.27
2023-02-15T06:04:21.508Z,43.07
2023-02-15T06:06:48.546Z,43.37
2023-02-15T06:09:15.556Z,42.50
2023-02-15T06:11:42.507Z,43.67
2023-02-15T06:14:09.444Z,42.37
2023-02-15T06:16:36.441Z,44.33
2023-02-15T06:19:03.929Z,44.10
2023-02-15T06:21:31.824Z,43.40
2023-02-15T06:23:59.750Z,45.03
2023-02-15T06:26:26.642Z,45.87
2023-02-15T06:28:53.574Z,44.53
2023-02-15T06:31:20.556Z,43.13
2023-02-15T06:33:47.500Z,43.50
2023-02-15T06:36:14.429Z,44.30
2023-02-15T06:38:42.749Z,44.83
2023-02-15T06:41:09.756Z,43.23
2023-02-15T06:43:36.702Z,44.60
2023-02-15T06:46:03.975Z,44.70
2023-02-15T06:48:31.027Z,44.10
2023-02-15T06:50:57.956Z,45.80
2023-02-15T06:53:24.821Z,44.43
2023-02-15T06:55:51.777Z,45.00
2023-02-15T06:58:18.784Z,46.87
2023-02-15T07:00:45.790Z,46.60
2023-02-15T07:03:15.292Z,47.20
2023-02-15T07:05:42.236Z,43.53
2023-02-15T07:08:09.178Z,43.37
2023-02-15T07:10:36.087Z,43.57
2023-02-15T07:13:03.355Z,45.07
2023-02-15T07:15:30.630Z,43.93
2023-02-15T07:17:59.523Z,44.97
2023-02-15T07:20:26.742Z,45.53
2023-02-15T07:22:53.627Z,43.43
2023-02-15T07:25:21.892Z,44.17
2023-02-15T07:27:49.261Z,43.43
2023-02-15T07:30:17.819Z,41.50
2023-02-15T07:33:05.517Z,42.20
2023-02-15T07:35:34.804Z,41.43
2023-02-15T07:38:02.265Z,40.40
2023-02-15T07:40:29.223Z,39.80
2023-02-15T07:43:00.148Z,39.67
2023-02-15T07:45:28.082Z,38.97
2023-02-15T07:47:55.168Z,40.73
2023-02-15T07:50:22.135Z,39.43
2023-02-15T07:52:49.081Z,39.53
2023-02-15T07:55:16.191Z,39.17
2023-02-15T07:57:48.052Z,39.20
2023-02-15T08:00:17.880Z,39.07
2023-02-15T08:03:12.444Z,37.97
2023-02-15T08:05:40.306Z,37.27
2023-02-15T08:08:08.237Z,39.27
2023-02-15T08:10:55.520Z,35.57
2023-02-15T08:13:22.723Z,36.30
2023-02-15T08:15:52.790Z,36.33
2023-02-15T08:18:19.719Z,36.23
2023-02-15T08:20:52.763Z,36.97
2023-02-15T08:23:19.758Z,37.37
2023-02-15T08:25:46.698Z,35.97
2023-02-15T08:28:13.598Z,36.63
2023-02-15T08:30:40.504Z,35.47
2023-02-15T08:33:07.431Z,35.77
2023-02-15T08:35:35.092Z,35.73
2023-02-15T08:38:02.965Z,35.27
2023-02-15T08:40:29.906Z,34.20
2023-02-15T08:42:56.799Z,36.37
2023-02-15T08:45:25.698Z,36.63
2023-02-15T08:47:52.688Z,36.97
2023-02-15T08:50:19.612Z,36.27
2023-02-15T08:52:46.621Z,35.20
2023-02-15T08:55:13.629Z,36.63
2023-02-15T08:57:45.876Z,36.87
2023-02-15T09:00:13.309Z,34.30
2023-02-15T09:02:40.243Z,36.53
2023-02-15T09:05:07.551Z,37.00
2023-02-15T09:07:34.564Z,37.20
2023-02-15T09:10:01.417Z,38.40
2023-02-15T09:12:28.296Z,36.17
2023-02-15T09:14:55.209Z,35.10
2023-02-15T09:17:22.464Z,34.87
2023-02-15T09:19:49.346Z,37.97
2023-02-15T09:22:16.290Z,36.63
2023-02-15T09:24:43.229Z,36.03
2023-02-15T09:27:10.078Z,37.07
2023-02-15T09:29:37.052Z,34.13
2023-02-15T09:32:04.430Z,36.67
2023-02-15T09:34:34.069Z,35.90
2023-02-15T09:37:01.701Z,34.43
2023-02-15T09:39:29.070Z,33.27
2023-02-15T09:42:10.947Z,36.40
2023-02-15T09:44:49.771Z,35.63
2023-02-15T09:47:19.456Z,35.10
2023-02-15T09:50:23.532Z,34.73
2023-02-15T09:52:56.907Z,34.20
2023-02-15T09:55:54.760Z,32.80
2023-02-15T09:58:52.027Z,33.43
2023-02-15T10:01:29.424Z,32.67
2023-02-15T10:04:17.402Z,34.27
2023-02-15T10:07:14.074Z,32.90
2023-02-15T10:09:40.953Z,32.83
2023-02-15T10:12:45.567Z,32.73
2023-02-15T10:15:27.185Z,33.70
2023-02-15T10:18:25.008Z,31.63
2023-02-15T10:21:13.376Z,31.70
2023-02-15T10:23:59.149Z,32.30
2023-02-15T10:26:37.374Z,32.63
2023-02-15T10:29:17.223Z,32.43
2023-02-15T10:31:54.357Z,32.87
2023-02-15T10:34:29.125Z,32.90
2023-02-15T10:37:22.177Z,31.27
2023-02-15T10:39:54.927Z,32.47
2023-02-15T10:42:51.384Z,32.83
2023-02-15T10:45:54.845Z,30.87
2023-02-15T10:48:26.063Z,31.53
2023-02-15T10:50:56.463Z,30.67
2023-02-15T10:53:41.363Z,31.13
2023-02-15T10:56:32.466Z,31.43
2023-02-15T10:59:05.722Z,29.50
2023-02-15T11:01:41.622Z,32.33
2023-02-15T11:04:23.303Z,30.67
2023-02-15T11:06:58.801Z,31.03
2023-02-15T11:09:34.640Z,31.97
2023-02-15T11:12:02.436Z,33.67
2023-02-15T11:14:52.085Z,31.60
2023-02-15T11:17:24.800Z,32.17
2023-02-15T11:20:19.779Z,30.40
2023-02-15T11:22:50.677Z,32.83
2023-02-15T11:25:22.810Z,34.90
2023-02-15T11:27:50.806Z,33.33
2023-02-15T11:30:23.455Z,33.90
2023-02-15T11:32:59.897Z,30.27
2023-02-15T11:35:42.754Z,32.80
2023-02-15T11:38:32.724Z,32.57
2023-02-15T11:41:18.077Z,31.43
2023-02-15T11:43:59.417Z,32.40
2023-02-15T11:46:26.449Z,33.63
2023-02-15T11:48:53.446Z,33.37
2023-02-15T11:51:24.042Z,33.77
2023-02-15T11:53:52.799Z,35.93
2023-02-15T11:56:29.153Z,33.57
2023-02-15T11:59:05.065Z,31.47
2023-02-15T12:01:42.088Z,34.20
2023-02-15T12:04:27.204Z,33.63
2023-02-15T12:07:03.477Z,32.73
2023-02-15T12:09:36.026Z,29.67
2023-02-15T12:12:36.270Z,30.43
2023-02-15T12:15:06.126Z,31.87
2023-02-15T12:17:53.056Z,30.27
2023-02-15T12:20:19.891Z,30.03
2023-02-15T12:23:04.589Z,30.10
2023-02-15T12:25:35.644Z,31.30
2023-02-15T12:28:03.925Z,29.93
2023-02-15T12:30:37.022Z,29.83
2023-02-15T12:33:15.553Z,30.33
2023-02-15T12:35:43.670Z,29.80
2023-02-15T12:38:10.505Z,29.37
2023-02-15T12:40:41.464Z,29.83
2023-02-15T12:43:46.299Z,28.53
2023-02-15T12:46:27.229Z,26.27
2023-02-15T12:49:10.892Z,28.63
2023-02-15T12:51:53.897Z,27.37
2023-02-15T12:54:23.959Z,25.33
2023-02-15T12:56:51.036Z,26.43
2023-02-15T12:59:23.123Z,25.53
2023-02-15T13:01:52.424Z,25.57
2023-02-15T13:04:31.463Z,27.13
2023-02-15T13:07:03.823Z,27.37
2023-02-15T13:09:33.738Z,26.63
2023-02-15T13:12:24.488Z,28.13
2023-02-15T13:14:53.294Z,27.03
2023-02-15T13:17:30.689Z,27.37
2023-02-15T13:20:04.471Z,26.53
2023-02-15T13:22:44.377Z,24.77
2023-02-15T13:25:26.285Z,23.70
2023-02-15T13:27:57.462Z,25.60
2023-02-15T13:30:27.208Z,26.80
2023-02-15T13:32:59.028Z,25.40
2023-02-15T13:35:30.756Z,25.00
2023-02-15T13:38:36.133Z,26.80
2023-02-15T13:41:10.437Z,23.73
2023-02-15T13:44:23.404Z,25.00
2023-02-15T13:47:02.199Z,24.77
2023-02-15T13:50:05.101Z,25.27
2023-02-15T13:52:39.170Z,25.23
2023-02-15T13:55:24.241Z,24.77
2023-02-15T13:58:15.694Z,25.10
2023-02-15T14:00:48.439Z,23.63
2023-02-15T14:03:49.448Z,25.43
2023-02-15T14:06:37.887Z,24.40
2023-02-15T14:09:39.335Z,22.73
2023-02-15T14:12:15.101Z,23.47
2023-02-15T14:14:49.000Z,23.47
2023-02-15T14:17:25.235Z,22.10
2023-02-15T14:19:54.930Z,23.97
2023-02-15T14:22:46.703Z,21.70
2023-02-15T14:25:14.558Z,20.50
2023-02-15T14:27:57.425Z,21.13
2023-02-15T14:30:27.708Z,21.43
2023-02-15T14:33:00.873Z,23.27
2023-02-15T14:35:30.148Z,22.33
2023-02-15T14:38:22.698Z,22.67
2023-02-15T14:41:21.842Z,22.03
2023-02-15T14:44:04.508Z,22.90
2023-02-15T14:46:48.542Z,21.40
2023-02-15T14:49:19.365Z,20.83
2023-02-15T14:51:50.427Z,20.70
2023-02-15T14:54:18.355Z,21.17
2023-02-15T14:56:46.869Z,20.87
2023-02-15T14:59:21.198Z,19.70
2023-02-15T15:02:13.617Z,20.47
2023-02-15T15:05:03.793Z,20.43
2023-02-15T15:07:44.574Z,21.37
2023-02-15T15:10:17.227Z,19.77
2023-02-15T15:12:49.966Z,20.40
2023-02-15T15:15:29.599Z,22.37
2023-02-15T15:18:09.916Z,22.53
2023-02-15T15:20:51.943Z,22.30
2023-02-15T15:23:22.076Z,24.00
2023-02-15T15:26:24.834Z,26.23
2023-02-15T15:28:51.713Z,23.63
2023-02-15T15:31:37.148Z,24.43
2023-02-15T15:34:22.650Z,23.33
2023-02-15T15:37:24.903Z,23.13
2023-02-15T15:40:14.885Z,22.83
2023-02-15T15:43:09.426Z,21.83
2023-02-15T15:45:57.603Z,21.47
2023-02-15T15:48:42.018Z,21.83
2023-02-15T15:51:21.861Z,23.90
2023-02-15T15:53:54.288Z,23.70
2023-02-15T15:56:25.780Z,25.80
2023-02-15T15:58:56.709Z,22.90
2023-02-15T16:01:35.383Z,25.73
2023-02-15T16:04:02.687Z,25.47
2023-02-15T16:06:38.123Z,24.30
2023-02-15T16:09:18.989Z,25.93
2023-02-15T16:11:52.293Z,25.30
2023-02-15T16:14:31.253Z,25.20
2023-02-15T16:17:01.533Z,24.40
2023-02-15T16:19:39.172Z,23.67
2023-02-15T16:22:21.970Z,25.53
2023-02-15T16:25:26.582Z,26.10
2023-02-15T16:27:53.980Z,26.10
2023-02-15T16:30:32.888Z,26.27
2023-02-15T16:33:17.555Z,26.03
2023-02-15T16:36:00.412Z,25.43
2023-02-15T16:38:45.902Z,26.57
2023-02-15T16:41:16.683Z,25.90
2023-02-15T16:43:48.100Z,26.43
2023-02-15T16:46:21.914Z,27.33
2023-02-15T16:48:53.075Z,25.83
2023-02-15T16:51:32.851Z,25.80
2023-02-15T16:54:07.625Z,26.03
2023-02-15T16:56:35.331Z,24.77
2023-02-15T16:59:03.061Z,24.77
2023-02-15T17:01:33.146Z,25.17
2023-02-15T17:04:23.649Z,24.50
2023-02-15T17:07:16.047Z,24.47
2023-02-15T17:09:57.156Z,26.57
2023-02-15T17:12:47.184Z,25.47
2023-02-15T17:15:36.975Z,24.17
2023-02-15T17:18:24.442Z,25.60
2023-02-15T17:20:54.843Z,23.87
2023-02-15T17:23:21.680Z,23.83
2023-02-15T17:25:49.601Z,26.13
2023-02-15T17:28:20.966Z,25.47
2023-02-15T17:30:48.809Z,24.60
2023-02-15T17:33:40.482Z,25.60
2023-02-15T17:36:16.858Z,25.83
2023-02-15T17:38:59.032Z,26.47
2023-02-15T17:41:28.214Z,26.00
2023-02-15T17:43:55.227Z,27.53
2023-02-15T17:46:25.741Z,27.77
2023-02-15T17:48:56.095Z,28.13
2023-02-15T17:51:24.060Z,28.33
2023-02-15T17:54:09.696Z,29.80
2023-02-15T17:56:38.165Z,27.70
2023-02-15T17:59:07.709Z,29.43
2023-02-15T18:02:02.741Z,28.40
2023-02-15T18:04:48.543Z,29.47
2023-02-15T18:07:36.946Z,29.00
2023-02-15T18:10:35.977Z,30.23
2023-02-15T18:13:04.480Z,31.63
2023-02-15T18:15:31.569Z,30.27
2023-02-15T18:17:58.856Z,29.67
2023-02-15T18:20:32.290Z,33.23
2023-02-15T18:22:59.195Z,30.03
2023-02-15T18:25:26.187Z,30.03
2023-02-15T18:27:55.090Z,30.43
2023-02-15T18:30:26.288Z,30.47
2023-02-15T18:32:56.763Z,29.03
2023-02-15T18:35:26.707Z,30.47
2023-02-15T18:37:54.796Z,30.30
2023-02-15T18:40:24.931Z,30.60
2023-02-15T18:42:51.983Z,30.90
2023-02-15T18:45:21.071Z,32.53
2023-02-15T18:47:48.833Z,31.53
2023-02-15T18:50:18.002Z,31.60
2023-02-15T18:52:47.408Z,30.63
2023-02-15T18:55:25.001Z,30.93
2023-02-15T18:57:54.614Z,30.33
2023-02-15T19:00:28.443Z,29.80
2023-02-15T19:02:57.179Z,29.77
2023-02-15T19:05:25.449Z,30.13
2023-02-15T19:07:52.575Z,30.87
2023-02-15T19:10:25.840Z,31.47
2023-02-15T19:12:54.111Z,32.43
2023-02-15T19:15:23.719Z,30.33
2023-02-15T19:17:51.986Z,32.33
2023-02-15T19:20:20.415Z,32.07
2023-02-15T19:22:49.203Z,30.80
2023-02-15T19:25:20.941Z,31.80
2023-02-15T19:27:48.112Z,31.33
2023-02-15T19:30:16.896Z,30.60
2023-02-15T19:32:45.235Z,32.60
2023-02-15T19:35:22.423Z,32.87
2023-02-15T19:37:56.624Z,32.80
2023-02-15T19:40:28.117Z,33.03
2023-02-15T19:42:55.478Z,33.00
2023-02-15T19:45:25.571Z,31.23
2023-02-15T19:47:54.159Z,30.60
2023-02-15T19:50:24.328Z,31.03
2023-02-15T19:52:51.954Z,32.27
2023-02-15T19:55:24.368Z,31.50
2023-02-15T19:57:52.839Z,34.17
2023-02-15T20:00:22.830Z,33.23
2023-02-15T20:02:49.970Z,33.57
2023-02-15T20:05:17.353Z,33.43
2023-02-15T20:07:47.660Z,32.10
2023-02-15T20:10:19.514Z,33.43
2023-02-15T20:12:47.627Z,33.33
2023-02-15T20:15:28.902Z,33.43
2023-02-15T20:17:57.267Z,34.57
2023-02-15T20:20:39.645Z,34.30
2023-02-15T20:23:07.205Z,36.00
2023-02-15T20:25:34.259Z,35.37
2023-02-15T20:28:02.509Z,35.10
2023-02-15T20:30:31.846Z,38.33
2023-02-15T20:32:59.093Z,37.23
2023-02-15T20:35:28.917Z,35.60
2023-02-15T20:37:59.644Z,37.30
2023-02-15T20:40:34.851Z,36.63
2023-02-15T20:43:02.730Z,36.87
2023-02-15T20:45:32.575Z,36.40
2023-02-15T20:48:02.057Z,38.50
2023-02-15T20:50:33.384Z,35.90
2023-02-15T20:53:02.921Z,39.23
2023-02-15T20:55:31.938Z,38.60
2023-02-15T20:57:59.692Z,36.77
2023-02-15T21:00:31.117Z,38.97
2023-02-15T21:02:59.960Z,38.20
2023-02-15T21:05:33.531Z,39.33
2023-02-15T21:08:00.689Z,38.80
2023-02-15T21:10:30.825Z,38.37
2023-02-15T21:13:01.089Z,38.00
2023-02-15T21:15:31.352Z,38.97
2023-02-15T21:18:00.980Z,39.23
2023-02-15T21:20:30.113Z,39.13
2023-02-15T21:22:59.785Z,38.20
2023-02-15T21:25:33.201Z,39.13
2023-02-15T21:28:00.267Z,38.43
2023-02-15T21:30:27.746Z,39.53
2023-02-15T21:32:54.868Z,39.93
2023-02-15T21:35:22.217Z,38.43
2023-02-15T21:37:51.497Z,41.43
2023-02-15T21:40:21.466Z,39.67
2023-02-15T21:43:07.218Z,40.67
2023-02-15T21:45:52.704Z,40.43
2023-02-15T21:48:21.869Z,38.43
2023-02-15T21:51:10.764Z,40.33
2023-02-15T21:53:45.878Z,40.53
2023-02-15T21:56:19.330Z,42.30
2023-02-15T21:58:47.014Z,42.97
2023-02-15T22:01:25.639Z,41.50
2023-02-15T22:03:58.168Z,41.00
2023-02-15T22:06:25.570Z,39.57
2023-02-15T22:08:52.510Z,38.67
2023-02-15T22:11:22.691Z,40.53
2023-02-15T22:13:50.985Z,40.63
2023-02-15T22:16:20.331Z,40.70
2023-02-15T22:18:48.400Z,40.67
2023-02-15T22:21:19.389Z,39.43
2023-02-15T22:23:47.306Z,41.27
2023-02-15T22:26:21.541Z,41.00
2023-02-15T22:28:48.669Z,41.37
2023-02-15T22:31:20.241Z,39.23
2023-02-15T22:33:49.826Z,41.63
2023-02-15T22:36:29.734Z,38.57
2023-02-15T22:38:57.996Z,37.93
2023-02-15T22:41:30.256Z,38.90
2023-02-15T22:43:58.126Z,38.97
2023-02-15T22:46:26.926Z,38.63
2023-02-15T22:48:53.990Z,39.67
2023-02-15T22:51:23.967Z,36.87
2023-02-15T22:53:54.640Z,38.37
2023-02-15T22:56:32.318Z,38.70
2023-02-15T22:59:10.292Z,38.00
2023-02-15T23:01:38.639Z,38.83
2023-02-15T23:04:07.215Z,38.70
2023-02-15T23:06:34.700Z,36.83
2023-02-15T23:09:01.980Z,38.77
2023-02-15T23:11:29.352Z,36.33
2023-02-15T23:13:56.529Z,37.23
2023-02-15T23:16:23.434Z,37.50
2023-02-15T23:18:50.426Z,38.00
2023-02-15T23:21:24.998Z,36.30
2023-02-15T23:23:58.652Z,35.17
2023-02-15T23:26:31.730Z,35.43
2023-02-15T23:29:01.026Z,35.87
2023-02-15T23:31:31.722Z,34.70
2023-02-15T23:34:00.676Z,35.17
2023-02-15T23:36:38.948Z,33.47
2023-02-15T23:39:41.846Z,32.07
2023-02-15T23:42:25.887Z,31.77
2023-02-15T23:44:52.936Z,31.67
2023-02-15T23:47:19.738Z,32.00
2023-02-15T23:49:48.078Z,30.73
2023-02-15T23:52:14.984Z,32.00
2023-02-15T23:54:41.899Z,30.47
2023-02-15T23:57:12.960Z,31.80
2023-02-15T23:59:43.613Z,31.27
